createdAt,value
2023-01-23T00:02:05.095Z,3.17
2023-01-23T00:05:13.180Z,3.15
2023-01-23T00:08:21.681Z,2.83
2023-01-23T00:11:31.965Z,2.97
2023-01-23T00:14:40.118Z,3.10
2023-01-23T00:17:48.424Z,2.90
2023-01-23T00:20:56.453Z,2.72
2023-01-23T00:24:04.557Z,2.78
2023-01-23T00:27:14.076Z,2.90
2023-01-23T00:30:22.199Z,3.10
2023-01-23T00:33:30.442Z,2.90
2023-01-23T00:36:39.383Z,2.70
2023-01-23T00:39:50.758Z,2.50
2023-01-23T00:43:00.324Z,2.40
2023-01-23T00:46:08.325Z,2.53
2023-01-23T00:49:17.757Z,2.95
2023-01-23T00:52:25.655Z,2.22
2023-01-23T00:55:35.181Z,2.50
2023-01-23T00:58:45.310Z,2.22
2023-01-23T01:01:53.797Z,2.42
2023-01-23T01:05:01.594Z,2.70
2023-01-23T01:08:09.651Z,2.40
2023-01-23T01:11:17.650Z,2.40
2023-01-23T01:14:27.134Z,2.30
2023-01-23T01:17:35.250Z,1.98
2023-01-23T01:20:43.388Z,2.45
2023-01-23T01:23:51.559Z,2.25
2023-01-23T01:26:59.820Z,2.15
2023-01-23T01:30:10.878Z,2.60
2023-01-23T01:33:18.860Z,2.20
2023-01-23T01:36:27.424Z,1.65
2023-01-23T01:39:35.264Z,1.83
2023-01-23T01:42:43.430Z,1.80
2023-01-23T01:46:12.060Z,1.70
2023-01-23T01:49:21.357Z,1.95
2023-01-23T01:52:29.222Z,1.83
2023-01-23T01:55:37.379Z,2.40
2023-01-23T01:58:46.365Z,1.60
2023-01-23T02:02:04.929Z,1.85
2023-01-23T02:05:14.180Z,1.50
2023-01-23T02:08:24.818Z,1.50
2023-01-23T02:11:33.300Z,1.25
2023-01-23T02:14:15.902Z,1.75
2023-01-23T02:21:03.205Z,1.40
2023-01-23T02:24:15.840Z,1.30
2023-01-23T02:27:25.021Z,1.58
2023-01-23T02:30:34.324Z,1.60
2023-01-23T02:33:45.677Z,1.58
2023-01-23T02:36:53.806Z,1.60
2023-01-23T02:40:03.192Z,1.58
2023-01-23T02:46:32.150Z,1.45
2023-01-23T02:49:40.313Z,1.98
2023-01-23T02:52:50.954Z,1.05
2023-01-23T02:56:00.727Z,1.20
2023-01-23T02:59:27.722Z,1.42
2023-01-23T03:02:38.179Z,1.40
2023-01-23T03:05:46.413Z,1.10
2023-01-23T03:08:56.074Z,1.40
2023-01-23T03:12:05.432Z,1.23
2023-01-23T03:15:14.795Z,1.23
2023-01-23T03:18:22.622Z,1.00
2023-01-23T03:21:30.941Z,0.95
2023-01-23T03:24:39.102Z,1.10
2023-01-23T03:27:46.838Z,1.13
2023-01-23T03:30:55.484Z,1.30
2023-01-23T03:34:03.626Z,1.00
2023-01-23T03:37:15.093Z,1.10
2023-01-23T03:40:43.862Z,1.13
2023-01-23T03:43:55.669Z,1.00
2023-01-23T03:47:06.515Z,0.98
2023-01-23T03:50:14.783Z,0.70
2023-01-23T03:53:23.391Z,1.20
2023-01-23T03:56:32.031Z,0.77
2023-01-23T03:59:39.849Z,0.88
2023-01-23T04:02:49.201Z,0.90
2023-01-23T04:05:58.986Z,0.80
2023-01-23T04:09:07.469Z,1.13
2023-01-23T04:12:15.403Z,1.05
2023-01-23T04:15:27.837Z,1.20
2023-01-23T04:18:39.826Z,0.98
2023-01-23T04:21:48.734Z,1.00
2023-01-23T04:24:56.786Z,0.70
2023-01-23T04:28:05.532Z,1.17
2023-01-23T04:31:13.947Z,0.93
2023-01-23T04:34:23.787Z,0.80
2023-01-23T04:37:33.741Z,1.00
2023-01-23T04:40:43.315Z,1.00
2023-01-23T04:43:51.881Z,0.80
2023-01-23T04:47:00.410Z,0.80
2023-01-23T04:50:11.741Z,0.82
2023-01-23T04:56:38.195Z,1.02
2023-01-23T04:59:48.771Z,1.02
2023-01-23T05:02:57.573Z,1.00
2023-01-23T05:06:08.440Z,0.90
2023-01-23T05:09:16.411Z,0.95
2023-01-23T05:12:31.139Z,0.50
2023-01-23T05:15:40.205Z,1.02
2023-01-23T05:18:48.868Z,1.08
2023-01-23T05:21:58.215Z,1.50
2023-01-23T05:25:09.017Z,0.93
2023-01-23T05:28:17.090Z,1.00
2023-01-23T05:31:29.693Z,0.70
2023-01-23T05:35:08.042Z,1.10
2023-01-23T05:38:19.012Z,0.77
2023-01-23T05:41:28.024Z,0.85
2023-01-23T05:44:53.768Z,0.70
2023-01-23T05:48:09.564Z,0.93
2023-01-23T05:51:18.146Z,0.80
2023-01-23T05:54:28.151Z,0.77
2023-01-23T05:57:36.131Z,0.93
2023-01-23T06:01:03.495Z,0.73
2023-01-23T06:04:34.206Z,0.52
2023-01-23T06:07:52.227Z,0.65
2023-01-23T06:11:01.690Z,1.08
2023-01-23T06:14:10.090Z,0.73
2023-01-23T06:17:18.025Z,0.85
2023-01-23T06:20:26.384Z,0.70
2023-01-23T06:23:34.476Z,0.98
2023-01-23T06:26:43.805Z,1.20
2023-01-23T06:29:51.898Z,0.90
2023-01-23T06:32:59.938Z,0.93
2023-01-23T06:36:14.894Z,1.25
2023-01-23T06:39:23.068Z,1.83
2023-01-23T06:42:33.641Z,1.10
2023-01-23T06:45:45.201Z,1.27
2023-01-23T06:48:53.955Z,1.23
2023-01-23T06:52:02.244Z,1.25
2023-01-23T06:55:13.193Z,1.60
2023-01-23T06:58:23.880Z,1.55
2023-01-23T07:01:31.840Z,1.88
2023-01-23T07:04:58.208Z,1.20
2023-01-23T07:08:07.327Z,1.67
2023-01-23T07:11:15.480Z,1.40
2023-01-23T07:14:27.105Z,1.77
2023-01-23T07:17:35.544Z,1.45
2023-01-23T07:20:45.309Z,1.70
2023-01-23T07:23:53.152Z,2.03
2023-01-23T07:27:01.237Z,1.60
2023-01-23T07:30:12.297Z,1.60
2023-01-23T07:33:20.338Z,1.92
2023-01-23T07:36:28.401Z,1.73
2023-01-23T07:39:36.441Z,1.45
2023-01-23T07:42:44.913Z,2.05
2023-01-23T07:45:54.609Z,1.60
2023-01-23T07:49:02.582Z,1.67
2023-01-23T07:52:10.845Z,1.92
2023-01-23T07:55:19.575Z,1.42
2023-01-23T07:58:27.756Z,1.25
2023-01-23T08:01:37.139Z,1.73
2023-01-23T08:04:44.907Z,1.05
2023-01-23T08:08:07.308Z,1.63
2023-01-23T08:11:20.172Z,1.27
2023-01-23T08:14:28.267Z,1.40
2023-01-23T08:17:37.597Z,1.65
2023-01-23T08:20:45.615Z,1.45
2023-01-23T08:23:53.843Z,1.60
2023-01-23T08:27:01.888Z,3.15
2023-01-23T08:30:11.284Z,1.52
2023-01-23T08:33:20.718Z,1.20
2023-01-23T08:36:28.913Z,1.20
2023-01-23T08:39:37.100Z,1.27
2023-01-23T08:42:45.274Z,0.93
2023-01-23T08:45:54.285Z,1.42
2023-01-23T08:49:04.825Z,1.27
2023-01-23T08:52:12.578Z,0.98
2023-01-23T08:55:20.694Z,1.35
2023-01-23T08:58:28.643Z,1.40
2023-01-23T09:01:36.693Z,1.60
2023-01-23T09:04:46.408Z,1.40
2023-01-23T09:07:54.524Z,1.10
2023-01-23T09:11:02.735Z,1.77
2023-01-23T09:14:10.977Z,1.15
2023-01-23T09:17:18.938Z,1.27
2023-01-23T09:20:29.165Z,1.55
2023-01-23T09:23:37.526Z,1.20
2023-01-23T09:26:45.423Z,1.73
2023-01-23T09:29:53.533Z,1.15
2023-01-23T09:33:01.714Z,1.27
2023-01-23T09:36:11.903Z,1.55
2023-01-23T09:39:20.750Z,1.60
2023-01-23T09:42:32.460Z,1.10
2023-01-23T09:45:40.637Z,1.35
2023-01-23T09:48:49.559Z,1.08
2023-01-23T09:52:00.120Z,1.10
2023-01-23T09:55:13.416Z,1.23
2023-01-23T09:58:27.004Z,1.30
2023-01-23T10:01:35.111Z,1.27
2023-01-23T10:04:43.023Z,1.20
2023-01-23T10:07:59.439Z,1.40
2023-01-23T10:11:08.186Z,1.20
2023-01-23T10:14:26.005Z,1.45
2023-01-23T10:17:38.026Z,1.17
2023-01-23T10:20:51.379Z,1.33
2023-01-23T10:24:03.814Z,0.93
2023-01-23T10:27:18.556Z,1.17
2023-01-23T10:30:28.260Z,1.20
2023-01-23T10:33:40.624Z,1.17
2023-01-23T10:36:55.388Z,1.15
2023-01-23T10:40:07.847Z,1.10
2023-01-23T10:43:16.894Z,0.85
2023-01-23T10:46:29.144Z,1.15
2023-01-23T10:49:39.022Z,1.00
2023-01-23T10:52:46.914Z,1.42
2023-01-23T10:55:58.265Z,1.17
2023-01-23T10:59:06.625Z,0.93
2023-01-23T11:02:22.497Z,0.93
2023-01-23T11:05:51.071Z,0.80
2023-01-23T11:09:01.935Z,1.23
2023-01-23T11:12:18.671Z,1.13
2023-01-23T11:15:27.433Z,0.98
2023-01-23T11:18:36.778Z,1.50
2023-01-23T11:21:52.792Z,1.35
2023-01-23T11:25:00.973Z,1.02
2023-01-23T11:28:23.497Z,0.82
2023-01-23T11:31:32.248Z,1.15
2023-01-23T11:34:42.338Z,1.30
2023-01-23T11:37:50.276Z,1.00
2023-01-23T11:40:58.175Z,1.13
2023-01-23T11:44:11.194Z,1.15
2023-01-23T11:47:51.404Z,1.20
2023-01-23T11:51:01.558Z,1.15
2023-01-23T11:54:18.561Z,1.50
2023-01-23T11:57:32.563Z,1.17
2023-01-23T12:00:43.653Z,1.10
2023-01-23T12:04:17.560Z,0.90
2023-01-23T12:07:25.785Z,1.20
2023-01-23T12:10:36.321Z,1.10
2023-01-23T12:13:57.126Z,1.30
2023-01-23T12:17:15.835Z,1.10
2023-01-23T12:20:32.064Z,0.95
2023-01-23T12:23:49.153Z,1.20
2023-01-23T12:27:01.324Z,1.08
2023-01-23T12:30:43.374Z,1.00
2023-01-23T12:34:00.510Z,1.30
2023-01-23T12:37:29.961Z,1.30
2023-01-23T12:40:40.450Z,1.00
2023-01-23T12:43:50.878Z,1.08
2023-01-23T12:47:01.554Z,0.90
2023-01-23T12:50:17.705Z,1.40
2023-01-23T12:53:26.239Z,1.23
2023-01-23T12:56:35.480Z,1.33
2023-01-23T12:59:59.081Z,0.95
2023-01-23T13:03:15.341Z,0.98
2023-01-23T13:06:54.095Z,1.20
2023-01-23T13:10:21.715Z,0.82
2023-01-23T13:13:29.981Z,1.60
2023-01-23T13:16:38.417Z,1.42
2023-01-23T13:20:04.026Z,1.95
2023-01-23T13:23:29.971Z,1.02
2023-01-23T13:26:37.949Z,1.30
2023-01-23T13:29:49.616Z,1.15
2023-01-23T13:33:00.776Z,0.73
2023-01-23T13:36:14.150Z,1.23
2023-01-23T13:39:28.981Z,1.25
2023-01-23T13:42:37.214Z,1.02
2023-01-23T13:45:49.951Z,1.00
2023-01-23T14:21:42.578Z,1.13
2023-01-23T14:24:51.083Z,1.35
2023-01-23T14:28:05.153Z,1.20
2023-01-23T14:31:23.986Z,1.35
2023-01-23T14:34:39.523Z,1.33
2023-01-23T14:37:47.695Z,0.98
2023-01-23T14:40:57.411Z,1.67
2023-01-23T14:44:05.916Z,1.08
2023-01-23T14:47:17.140Z,1.02
2023-01-23T14:50:26.411Z,0.80
2023-01-23T14:53:34.230Z,1.15
2023-01-23T14:56:42.287Z,1.35
2023-01-23T14:59:50.583Z,1.08
2023-01-23T15:02:59.762Z,1.50
2023-01-23T15:06:13.624Z,1.10
2023-01-23T15:09:24.573Z,1.73
2023-01-23T15:12:32.641Z,1.17
2023-01-23T15:15:45.312Z,0.98
2023-01-23T15:19:00.004Z,1.08
2023-01-23T15:22:09.573Z,1.00
2023-01-23T15:25:35.896Z,1.10
2023-01-23T15:28:50.040Z,1.13
2023-01-23T15:31:57.975Z,1.48
2023-01-23T15:35:16.879Z,1.27
2023-01-23T15:38:24.999Z,1.33
2023-01-23T15:41:40.375Z,1.30
2023-01-23T15:44:48.269Z,1.20
2023-01-23T15:47:56.168Z,0.90
2023-01-23T15:51:06.079Z,1.33
2023-01-23T15:54:19.429Z,1.05
2023-01-23T15:57:27.121Z,1.10
2023-01-23T16:00:35.287Z,1.17
2023-01-23T16:03:43.424Z,1.13
2023-01-23T16:06:52.772Z,1.67
2023-01-23T16:10:01.071Z,0.90
2023-01-23T16:13:11.126Z,1.23
2023-01-23T16:16:19.367Z,1.20
2023-01-23T16:19:27.398Z,1.40
2023-01-23T16:22:36.911Z,1.50
2023-01-23T16:25:46.407Z,0.80
2023-01-23T16:29:01.967Z,1.15
2023-01-23T16:32:20.308Z,1.27
2023-01-23T16:35:28.530Z,1.25
2023-01-23T16:38:38.142Z,0.90
2023-01-23T16:41:46.695Z,1.20
2023-01-23T16:44:54.999Z,1.23
2023-01-23T16:48:03.928Z,1.17
2023-01-23T16:51:15.174Z,1.48
2023-01-23T16:54:24.866Z,1.30
2023-01-23T16:57:32.789Z,1.08
2023-01-23T17:00:40.824Z,1.05
2023-01-23T17:03:52.211Z,1.80
2023-01-23T17:07:00.320Z,2.65
2023-01-23T17:10:14.470Z,1.70
2023-01-23T17:13:23.020Z,1.38
2023-01-23T17:16:31.256Z,1.10
2023-01-23T17:19:41.458Z,1.30
2023-01-23T17:22:49.537Z,1.40
2023-01-23T17:26:01.168Z,1.42
2023-01-23T17:29:09.590Z,1.60
2023-01-23T17:32:24.317Z,2.22
2023-01-23T17:35:34.945Z,1.33
2023-01-23T17:38:43.089Z,1.45
2023-01-23T17:41:52.821Z,1.63
2023-01-23T17:45:00.911Z,1.80
2023-01-23T17:48:13.003Z,1.00
2023-01-23T17:51:21.443Z,1.45
2023-01-23T17:54:29.641Z,1.10
2023-01-23T17:57:39.067Z,1.00
2023-01-23T18:00:48.818Z,1.15
2023-01-23T18:03:56.906Z,1.45
2023-01-23T18:07:05.034Z,1.23
2023-01-23T18:10:13.676Z,1.77
2023-01-23T18:13:27.285Z,1.63
2023-01-23T18:16:37.610Z,1.80
2023-01-23T18:19:46.004Z,1.25
2023-01-23T18:22:54.771Z,1.83
2023-01-23T18:26:07.349Z,1.48
2023-01-23T18:29:30.352Z,1.13
2023-01-23T18:36:07.743Z,1.40
2023-01-23T18:39:32.090Z,1.55
2023-01-23T18:42:44.931Z,1.38
2023-01-23T18:45:55.861Z,1.92
2023-01-23T18:49:05.224Z,2.35
2023-01-23T18:52:13.737Z,1.83
2023-01-23T18:55:25.613Z,1.98
2023-01-23T18:58:41.891Z,1.90
2023-01-23T19:01:53.374Z,1.75
2023-01-23T19:05:17.349Z,1.90
2023-01-23T19:08:30.718Z,1.70
2023-01-23T19:11:50.083Z,2.00
2023-01-23T19:15:08.507Z,2.00
2023-01-23T19:18:39.177Z,2.28
2023-01-23T19:21:47.813Z,1.65
2023-01-23T19:24:57.025Z,1.70
2023-01-23T19:28:05.439Z,1.75
2023-01-23T19:31:20.737Z,1.63
2023-01-23T19:34:30.194Z,1.52
2023-01-23T19:37:40.424Z,1.92
2023-01-23T19:40:48.156Z,1.80
2023-01-23T19:43:56.886Z,2.65
2023-01-23T19:47:06.692Z,1.90
2023-01-23T19:50:16.970Z,1.88
2023-01-23T19:53:24.849Z,1.52
2023-01-23T19:56:32.892Z,1.80
2023-01-23T19:59:40.848Z,1.90
2023-01-23T20:02:49.147Z,1.92
2023-01-23T20:05:59.549Z,1.98
2023-01-23T20:09:07.412Z,1.92
2023-01-23T20:12:15.450Z,1.48
2023-01-23T20:15:24.579Z,1.30
2023-01-23T20:18:32.393Z,1.50
2023-01-23T20:21:41.948Z,1.67
2023-01-23T20:24:50.074Z,1.65
2023-01-23T20:27:58.232Z,1.50
2023-01-23T20:31:06.508Z,1.70
2023-01-23T20:34:14.380Z,1.55
2023-01-23T20:37:23.796Z,1.80
2023-01-23T20:40:31.833Z,1.98
2023-01-23T20:43:41.071Z,1.70
2023-01-23T20:46:48.971Z,4.10
2023-01-23T20:49:56.888Z,1.88
2023-01-23T20:53:23.721Z,1.80
2023-01-23T20:56:31.642Z,1.80
2023-01-23T20:59:39.767Z,2.00
2023-01-23T21:02:47.809Z,1.90
2023-01-23T21:05:56.105Z,1.63
2023-01-23T21:09:05.684Z,1.55
2023-01-23T21:12:13.498Z,1.60
2023-01-23T21:15:21.778Z,2.10
2023-01-23T21:18:29.938Z,1.48
2023-01-23T21:21:37.841Z,1.73
2023-01-23T21:24:46.967Z,1.80
2023-01-23T21:27:54.794Z,1.48
2023-01-23T21:31:08.916Z,1.63
2023-01-23T21:34:17.187Z,1.73
2023-01-23T21:37:24.996Z,2.35
2023-01-23T21:40:34.576Z,1.85
2023-01-23T21:43:42.399Z,1.67
2023-01-23T21:46:50.522Z,1.85
2023-01-23T21:49:58.815Z,1.60
2023-01-23T21:53:07.250Z,1.55
2023-01-23T21:56:18.494Z,1.27
2023-01-23T21:59:26.620Z,1.67
2023-01-23T22:02:33.838Z,1.75
2023-01-23T22:05:41.985Z,1.65
2023-01-23T22:08:50.171Z,1.40
2023-01-23T22:11:59.240Z,1.95
2023-01-23T22:15:08.356Z,1.52
2023-01-23T22:18:16.291Z,2.05
2023-01-23T22:21:24.312Z,1.27
2023-01-23T22:24:32.501Z,1.55
2023-01-23T22:27:41.927Z,1.67
2023-01-23T22:30:50.112Z,1.13
2023-01-23T22:33:58.219Z,1.58
2023-01-23T22:37:06.091Z,1.17
2023-01-23T22:40:14.256Z,1.42
2023-01-23T22:43:23.699Z,1.30
2023-01-23T22:46:32.272Z,1.40
2023-01-23T22:49:40.147Z,1.60
2023-01-23T22:52:48.346Z,1.38
2023-01-23T22:55:56.409Z,1.33
2023-01-23T22:59:05.512Z,1.70
2023-01-23T23:02:13.661Z,1.08
2023-01-23T23:05:21.992Z,1.50
2023-01-23T23:08:30.318Z,1.52
2023-01-23T23:11:38.324Z,1.52
2023-01-23T23:14:48.009Z,1.20
2023-01-23T23:17:56.066Z,1.27
2023-01-23T23:21:04.715Z,1.67
2023-01-23T23:24:13.898Z,1.50
2023-01-23T23:27:21.799Z,1.45
2023-01-23T23:30:31.142Z,1.33
2023-01-23T23:33:39.104Z,1.38
2023-01-23T23:36:46.938Z,1.30
2023-01-23T23:39:54.990Z,1.15
2023-01-23T23:43:02.790Z,1.00
2023-01-23T23:46:12.274Z,1.15
2023-01-23T23:49:20.312Z,1.50
2023-01-23T23:52:28.389Z,1.60
2023-01-23T23:55:36.468Z,1.33
2023-01-23T23:58:44.438Z,1.63
